Aérodrome :
LOGIN :

S'inscrire | Disclaimer

   EN    FR    IT 

 










Légende :    VFR   VFR Marginal   IFR   IFR Intensif   IFR Très Intensif
Visi : 
Plafond : 
>= 8 km
>= 3000ft
5 à 8 km
1000 à 3000 ft
1500m à 5 km
500 à 1000 ft
800 à 1500m
200 à 500 ft
< 800m
< 200 ft
Symboles :   Orages  Brouillard  Fortes neiges  Fortes précipitations  Vent > 20 kt
SIGMETs :   Divers  Orages  Givrage  Turbulence  Onde Orograph.  Cendres Volcan.






- Altitude de l'aérodrome : 2595 ft
- Code IATA : SLM


LESA - Salamanca Matacan

DERNIER METAR :
  • 020730Z 22013KT 9999 FEW028 06/03 Q1006

METARs EXPIRÉS :
  • 020700Z 24016KT 9999 FEW027 06/02 Q1006
  • 020630Z 25018KT 9999 FEW023 06/02 Q1007
  • 020600Z 25016KT 9999 FEW027 06/02 Q1007
  • 020530Z AUTO 26018KT 230V290 8000 SCT020 BKN025 06/03 Q1008
  • 020500Z AUTO 25020KT 8000 BKN020 OVC026 06/03 Q1008
  • 020430Z AUTO 25015KT 8000 BKN020 OVC029 06/03 Q1008
  • 012100Z AUTO 25014KT 9000 FEW024 SCT045 07/04 Q1014
  • 020400Z AUTO 25016KT 7000 BKN028 BKN033 OVC039 06/04 Q1009
  • 020330Z AUTO 24014KT 7000 FEW016 BKN022 OVC027 06/04 Q1009
  • 020300Z AUTO 25014KT 7000 SCT016 BKN024 BKN032 06/04 Q1010

TAF TAF LESA
Valide du 02 à 03h jusqu'au 03 à 03h UTC


020200Z 0203/0303 24012KT 9999 BKN040 TX07/0215Z TN01/0303Z
PROB40
TEMPO 0209/0220 24028G38KT
PROB30
TEMPO 0203/0209 3000 RA BKN008
TEMPO 0209/0218 3000 RA BKN010



MET'MAP, la Météo Aéronautique d'un coup d'oeil ! - Copyright ORBIFLY Décembre 2007 - Disclaimer

ORBIFLY MET'MAP TEAM :

Programmation & Développement : Alexandra Zaïnal
Sur une idée originale de : Baudouin d'Aumeries
Soutien technique & logistique : Manuel Goepfert
Assistance : Marc-Olivier Méhu




SOURCES & CREDITS :

   NOAA